KUNU/UNU METAR and TAF weather

Enter ICAO airport designator
Station Type Date Time Source
KUNU METAR 2020/09/18 23:55 UTC NOAA

KUNU 182355Z AUTO 00000KT 10SM CLR 13/01 A3036 RMK AO2 T01270012 10322 20066


Station Type Date Time Source
KUNU Decoded METAR 2020/09/18 23:55 UTC NOAA

Juneau, Dodge County Airport, WI, United States (KUNU) 43-25-36N 088-42-12W
Sep 18, 2020 - 07:55 PM EDT / 2020.09.18 2355 UTC
Wind: Calm:0
Visibility: 10 mile(s):0
Sky conditions: clear
Temperature: 54.9 F (12.7 C)
Dew Point: 34.2 F (1.2 C)
Relative Humidity: 45%
Pressure (altimeter): 30.36 in. Hg (1028 hPa)
ob: KUNU 182355Z AUTO 00000KT 10SM CLR 13/01 A3036 RMK AO2 T01270012 10322 20066
cycle: 0

Station Type Date Time Source
KUNU TAF UTC NOAA

Error!

Example: see airport list